Time;durP1;ratioP1;P1;durP2;ratioP2;P2;SDS_P1;SDS_P2;PMS_P1;PMS_P2;Temp;Humidity;BMP_temperature;BMP_pressure;BME280_temperature;BME280_humidity;BME280_pressure;Samples;Min_cycle;Max_cycle;Signal;HPM_P1;HPM_P2
2023/01/29 00:01:09;;;;;;;25.85;13.82;;;5.60;99.90;;;;;;5009357;28;20041;-90
2023/01/29 00:03:35;;;;;;;28.63;14.63;;;5.60;99.90;;;;;;5004021;28;20054;-89
2023/01/29 00:06:05;;;;;;;26.38;13.25;;;5.60;99.90;;;;;;5002646;28;20120;-88
2023/01/29 00:08:35;;;;;;;27.60;13.25;;;5.60;99.90;;;;;;5002452;28;20076;-89
2023/01/29 00:11:03;;;;;;;26.03;13.73;;;5.60;99.90;;;;;;4999892;28;20042;-90
2023/01/29 00:13:29;;;;;;;27.85;13.25;;;5.60;99.90;;;;;;5001498;28;20276;-89
2023/01/29 00:15:56;;;;;;;30.98;15.07;;;5.50;99.90;;;;;;5001902;28;20038;-90
2023/01/29 00:18:21;;;;;;;28.63;13.82;;;5.60;99.90;;;;;;4999019;28;20053;-89
2023/01/29 00:20:47;;;;;;;28.80;14.77;;;5.50;99.90;;;;;;5001892;28;20036;-89
2023/01/29 00:23:14;;;;;;;28.38;15.32;;;5.60;99.90;;;;;;5002178;28;20018;-89
2023/01/29 00:25:40;;;;;;;32.70;14.80;;;5.50;99.90;;;;;;5001286;28;20110;-89
2023/01/29 00:28:05;;;;;;;30.02;15.77;;;5.50;99.90;;;;;;5001276;28;20073;-90
2023/01/29 00:30:31;;;;;;;29.98;15.43;;;5.60;99.90;;;;;;5019031;28;20022;-90
2023/01/29 00:32:57;;;;;;;28.38;15.88;;;5.60;99.90;;;;;;5001244;28;20032;-90
2023/01/29 00:35:23;;;;;;;24.88;13.98;;;5.50;99.90;;;;;;5001742;28;20026;-89
2023/01/29 00:37:48;;;;;;;29.05;15.52;;;5.50;99.90;;;;;;4999643;28;20025;-91
2023/01/29 00:40:14;;;;;;;33.15;15.93;;;5.60;99.90;;;;;;5001469;28;20053;-90
2023/01/29 00:45:28;;;;;;;26.52;15.00;;;5.50;99.90;;;;;;5018649;28;20101;-90
2023/01/29 00:47:54;;;;;;;29.17;15.57;;;5.60;99.90;;;;;;5000934;28;20046;-90
2023/01/29 00:50:19;;;;;;;29.25;15.27;;;5.60;99.90;;;;;;5001509;28;20096;-90
2023/01/29 00:52:47;;;;;;;30.48;15.77;;;5.60;99.90;;;;;;5001642;28;20026;-90
2023/01/29 00:55:13;;;;;;;26.73;14.55;;;5.60;99.90;;;;;;5005310;28;20079;-91
2023/01/29 00:57:39;;;;;;;28.92;15.05;;;5.50;99.90;;;;;;5005137;28;20089;-90
2023/01/29 01:00:07;;;;;;;25.08;14.65;;;5.60;99.90;;;;;;5005257;28;20037;-89
2023/01/29 01:05:17;;;;;;;25.65;14.05;;;5.60;99.90;;;;;;5022130;28;20084;-90
2023/01/29 01:07:48;;;;;;;24.55;14.13;;;5.60;99.90;;;;;;5005322;28;20076;-91
2023/01/29 01:10:20;;;;;;;22.80;12.98;;;5.60;99.90;;;;;;5005298;28;20021;-90
2023/01/29 01:12:53;;;;;;;21.23;11.75;;;5.60;99.90;;;;;;5005193;28;20072;-89
2023/01/29 01:15:19;;;;;;;20.70;11.23;;;5.60;99.90;;;;;;5005368;28;20076;-90
2023/01/29 01:17:47;;;;;;;19.90;11.05;;;5.60;99.90;;;;;;4983766;28;20093;-90
2023/01/29 01:20:16;;;;;;;19.05;11.18;;;5.60;99.90;;;;;;5005120;28;20028;-89
2023/01/29 01:22:41;;;;;;;20.17;11.13;;;5.60;99.90;;;;;;5004747;28;20132;-89
2023/01/29 01:25:07;;;;;;;18.88;11.45;;;5.60;99.90;;;;;;5004650;28;20073;-89
2023/01/29 01:27:33;;;;;;;20.20;12.13;;;5.60;99.90;;;;;;5004728;28;20119;-89
2023/01/29 01:29:59;;;;;;;16.20;10.65;;;5.60;99.90;;;;;;5004632;28;20467;-91
2023/01/29 01:32:25;;;;;;;18.42;9.98;;;5.60;99.90;;;;;;5002313;28;20459;-89
2023/01/29 01:34:51;;;;;;;16.23;9.27;;;5.60;99.90;;;;;;5004355;28;20022;-90
2023/01/29 01:37:17;;;;;;;11.25;6.40;;;5.60;99.90;;;;;;5009570;28;20056;-88
2023/01/29 01:39:47;;;;;;;9.10;6.07;;;5.60;99.90;;;;;;5027314;28;20422;-90
2023/01/29 01:42:13;;;;;;;11.40;7.43;;;5.60;99.90;;;;;;5004748;28;20026;-90
2023/01/29 01:44:52;;;;;;;11.10;6.88;;;5.60;99.90;;;;;;5004798;28;20036;-90
2023/01/29 01:47:26;;;;;;;11.98;7.60;;;5.60;99.90;;;;;;5011457;28;20511;-90
2023/01/29 01:49:53;;;;;;;12.50;7.53;;;5.60;99.90;;;;;;5002452;28;20029;-90
2023/01/29 01:52:20;;;;;;;12.40;7.28;;;5.60;99.90;;;;;;5005709;28;20037;-89
2023/01/29 01:54:47;;;;;;;11.73;7.10;;;5.60;99.90;;;;;;5004181;28;20040;-89
2023/01/29 01:57:17;;;;;;;12.35;7.47;;;5.60;99.90;;;;;;5006124;28;20033;-90
2023/01/29 01:59:49;;;;;;;11.10;6.07;;;5.60;99.90;;;;;;5006028;28;20022;-90
2023/01/29 02:10:39;;;;;;;14.32;8.07;;;5.60;99.90;;;;;;5020821;28;20025;-89
2023/01/29 02:13:06;;;;;;;10.18;6.65;;;5.60;99.90;;;;;;5003455;28;20061;-90
2023/01/29 02:15:32;;;;;;;9.73;6.60;;;5.60;99.90;;;;;;5003233;28;20033;-89
2023/01/29 02:17:58;;;;;;;11.48;7.30;;;5.60;99.90;;;;;;5003696;28;20092;-90
2023/01/29 02:20:27;;;;;;;7.63;5.18;;;5.60;99.90;;;;;;5003376;28;20060;-89
2023/01/29 02:22:54;;;;;;;8.85;5.30;;;5.60;99.90;;;;;;5003624;28;20017;-90
2023/01/29 02:25:39;;;;;;;6.68;4.43;;;5.60;99.90;;;;;;5003534;28;20030;-88
2023/01/29 02:28:23;;;;;;;10.77;4.72;;;5.60;99.90;;;;;;5003482;28;20057;-91
2023/01/29 02:31:23;;;;;;;15.27;7.15;;;5.60;99.90;;;;;;5003569;28;20030;-88
2023/01/29 02:34:16;;;;;;;14.30;6.73;;;5.50;99.90;;;;;;5000953;28;20022;-91
2023/01/29 02:36:42;;;;;;;16.23;7.65;;;5.50;99.90;;;;;;5003235;28;20045;-88
2023/01/29 02:39:07;;;;;;;19.92;8.30;;;5.50;99.90;;;;;;5003359;28;20018;-89
2023/01/29 02:41:47;;;;;;;27.63;11.38;;;5.50;99.90;;;;;;5003233;28;20026;-89
2023/01/29 02:44:30;;;;;;;30.40;11.75;;;5.40;99.90;;;;;;5002855;28;20038;-89
2023/01/29 02:47:01;;;;;;;34.10;13.43;;;5.40;99.90;;;;;;4999426;28;20112;-90
2023/01/29 02:49:51;;;;;;;36.58;14.18;;;5.40;99.90;;;;;;5000472;28;20018;-89
2023/01/29 02:52:24;;;;;;;35.22;14.13;;;5.40;99.90;;;;;;5001832;28;20403;-89
2023/01/29 02:55:09;;;;;;;24.63;11.27;;;5.40;99.90;;;;;;5002755;28;20033;-90
2023/01/29 02:57:38;;;;;;;26.42;12.10;;;5.40;99.90;;;;;;5001543;28;20049;-90
2023/01/29 03:00:23;;;;;;;24.25;11.90;;;5.40;99.90;;;;;;5002729;28;20379;-90
2023/01/29 03:03:21;;;;;;;24.58;10.57;;;5.40;99.90;;;;;;5000620;28;20022;-90
2023/01/29 03:06:06;;;;;;;25.30;11.48;;;5.30;99.90;;;;;;4987119;28;20042;-90
2023/01/29 03:08:41;;;;;;;22.63;10.40;;;5.40;99.90;;;;;;5002670;28;20033;-91
2023/01/29 03:11:12;;;;;;;23.25;10.60;;;5.30;99.90;;;;;;4997710;28;20026;-89
2023/01/29 03:13:38;;;;;;;;;;;5.40;99.90;;;;;;4988216;28;20022;-91
2023/01/29 03:16:29;;;;;;;16.50;8.45;;;5.30;99.90;;;;;;5004911;28;19909;-90
2023/01/29 03:19:01;;;;;;;16.85;8.95;;;5.40;99.90;;;;;;5007365;28;20045;-90
2023/01/29 03:21:57;;;;;;;16.98;10.35;;;5.30;99.90;;;;;;4998247;28;20025;-90
2023/01/29 03:33:17;;;;;;;21.15;11.25;;;5.30;99.90;;;;;;5018274;28;20037;-90
2023/01/29 03:36:09;;;;;;;22.52;12.20;;;5.30;99.90;;;;;;5002350;28;20094;-89
2023/01/29 03:38:35;;;;;;;20.67;11.50;;;5.30;99.90;;;;;;5000878;28;20022;-91
2023/01/29 03:41:21;;;;;;;21.95;11.82;;;5.30;99.90;;;;;;5002080;28;20038;-88
2023/01/29 03:43:54;;;;;;;23.13;10.45;;;5.30;99.90;;;;;;5017202;28;20041;-91
2023/01/29 03:46:28;;;;;;;19.90;10.90;;;5.30;99.90;;;;;;5002078;28;20070;-90
2023/01/29 03:49:00;;;;;;;21.48;10.98;;;5.30;99.90;;;;;;4997672;28;20018;-90
2023/01/29 03:51:32;;;;;;;21.23;10.70;;;5.20;99.90;;;;;;5001964;28;20022;-90
2023/01/29 03:53:57;;;;;;;22.33;10.75;;;5.30;99.90;;;;;;5001850;28;20064;-90
2023/01/29 03:56:57;;;;;;;20.50;10.10;;;5.20;99.90;;;;;;5002142;28;20093;-90
2023/01/29 03:59:40;;;;;;;21.40;9.03;;;5.20;99.90;;;;;;5001442;28;20022;-89
2023/01/29 04:02:12;;;;;;;16.67;9.00;;;5.30;99.90;;;;;;5001965;28;20032;-91
2023/01/29 04:04:40;;;;;;;18.05;9.55;;;5.20;99.90;;;;;;5001775;28;20575;-91
2023/01/29 04:07:23;;;;;;;20.52;9.88;;;5.20;99.90;;;;;;4998950;28;20116;-91
2023/01/29 04:09:57;;;;;;;17.40;8.63;;;5.20;99.90;;;;;;4996902;28;20022;-90
2023/01/29 04:12:28;;;;;;;18.48;8.82;;;5.20;99.90;;;;;;5001806;28;20065;-90
2023/01/29 04:14:56;;;;;;;15.07;7.47;;;5.20;99.90;;;;;;5001727;28;20014;-87
2023/01/29 04:17:31;;;;;;;16.60;7.93;;;5.20;99.90;;;;;;5000140;28;20438;-90
2023/01/29 04:19:59;;;;;;;12.13;6.45;;;5.20;99.90;;;;;;5001591;28;20029;-90
2023/01/29 04:22:33;;;;;;;12.73;7.00;;;5.30;99.90;;;;;;5001502;28;20539;-90
2023/01/29 04:25:07;;;;;;;15.45;7.88;;;5.20;99.90;;;;;;4998317;28;20030;-91
2023/01/29 04:27:44;;;;;;;13.35;7.68;;;5.20;99.90;;;;;;4997688;28;20069;-91
2023/01/29 04:30:21;;;;;;;12.38;7.25;;;5.20;99.90;;;;;;5019344;28;20022;-91
2023/01/29 04:33:22;;;;;;;14.85;7.90;;;5.20;99.90;;;;;;5018658;28;20026;-90
2023/01/29 04:35:58;;;;;;;;;;;5.20;99.90;;;;;;4941802;29;20039;-91
2023/01/29 04:38:48;;;;;;;16.35;8.23;;;5.20;99.90;;;;;;4943693;29;19911;-90
2023/01/29 04:41:23;;;;;;;16.73;8.50;;;5.30;99.90;;;;;;4944296;29;20040;-92
2023/01/29 04:43:58;;;;;;;18.30;9.00;;;5.30;99.90;;;;;;4955283;29;20837;-90
2023/01/29 04:46:36;;;;;;;18.13;9.98;;;5.30;99.90;;;;;;4940586;29;20437;-91
2023/01/29 04:49:12;;;;;;;16.52;9.15;;;5.30;99.90;;;;;;4948518;29;20027;-91
2023/01/29 04:51:52;;;;;;;17.20;8.38;;;5.30;99.90;;;;;;4938684;29;20122;-92
2023/01/29 04:54:33;;;;;;;15.65;8.50;;;5.30;99.90;;;;;;4942451;29;20027;-92
2023/01/29 04:57:45;;;;;;;16.10;8.65;;;5.30;99.90;;;;;;4940899;29;20028;-92
2023/01/29 05:00:13;;;;;;;17.75;9.75;;;5.30;99.90;;;;;;4947765;29;20063;-91
2023/01/29 05:02:41;;;;;;;15.38;8.95;;;5.30;99.90;;;;;;4944862;29;20167;-91
2023/01/29 05:05:09;;;;;;;15.48;9.25;;;5.30;99.90;;;;;;4936158;29;20019;-92
2023/01/29 05:07:37;;;;;;;15.68;8.98;;;5.30;99.90;;;;;;4938842;29;20031;-91
2023/01/29 05:10:10;;;;;;;15.40;9.35;;;5.30;99.90;;;;;;4984434;28;20037;-91
2023/01/29 05:12:38;;;;;;;14.50;8.77;;;5.30;99.90;;;;;;5004710;28;20021;-91
2023/01/29 05:15:10;;;;;;;14.00;7.63;;;5.30;99.90;;;;;;5005892;28;20030;-90
2023/01/29 05:17:35;;;;;;;13.50;8.27;;;5.30;99.90;;;;;;5022523;28;20546;-90
2023/01/29 05:20:01;;;;;;;15.32;8.70;;;5.30;99.90;;;;;;5005822;28;20038;-91
2023/01/29 05:22:28;;;;;;;18.73;8.73;;;5.30;99.90;;;;;;5018386;28;20018;-91
2023/01/29 05:24:53;;;;;;;13.55;9.43;;;5.30;99.90;;;;;;5006427;28;20068;-91
2023/01/29 05:30:09;;;;;;;18.83;10.25;;;5.30;99.90;;;;;;5014868;28;20036;-90
2023/01/29 05:32:35;;;;;;;14.52;10.00;;;5.30;99.90;;;;;;5004158;28;20026;-90
2023/01/29 05:35:00;;;;;;;18.58;10.73;;;5.40;99.90;;;;;;5004026;28;20032;-90
2023/01/29 05:37:26;;;;;;;16.73;9.85;;;5.30;99.90;;;;;;5004435;28;20029;-91
2023/01/29 05:39:52;;;;;;;17.83;10.10;;;5.30;99.90;;;;;;5021835;28;20030;-92
2023/01/29 05:42:17;;;;;;;16.23;8.45;;;5.30;99.90;;;;;;5021456;28;20026;-92
2023/01/29 05:44:43;;;;;;;16.23;9.70;;;5.30;99.90;;;;;;5019997;28;20022;-91
2023/01/29 05:47:09;;;;;;;16.35;9.05;;;5.30;99.90;;;;;;5021201;28;20030;-90
2023/01/29 05:49:34;;;;;;;13.50;6.97;;;5.30;99.90;;;;;;5004260;28;20026;-91
2023/01/29 05:52:00;;;;;;;12.93;7.20;;;5.30;99.90;;;;;;5004167;28;20022;-91
2023/01/29 05:54:25;;;;;;;12.05;7.03;;;5.30;99.90;;;;;;5021419;28;20051;-91
2023/01/29 05:56:51;;;;;;;12.55;7.50;;;5.30;99.90;;;;;;5021178;28;20034;-92
2023/01/29 05:59:17;;;;;;;10.93;6.45;;;5.30;99.90;;;;;;5021137;28;20053;-90
2023/01/29 06:01:42;;;;;;;9.20;5.68;;;5.30;99.90;;;;;;5021400;28;20497;-91
2023/01/29 06:04:08;;;;;;;9.50;5.57;;;5.30;99.90;;;;;;5021333;28;20030;-92
2023/01/29 06:06:33;;;;;;;13.07;7.13;;;5.30;99.90;;;;;;5021623;28;20030;-91
2023/01/29 06:08:59;;;;;;;14.38;6.38;;;5.30;99.90;;;;;;5022030;28;20488;-91
2023/01/29 06:11:25;;;;;;;16.60;8.38;;;5.30;99.90;;;;;;5021120;28;20018;-92
2023/01/29 06:13:50;;;;;;;12.90;6.60;;;5.30;99.90;;;;;;5003493;28;20025;-91
2023/01/29 06:16:16;;;;;;;16.67;7.55;;;5.30;99.90;;;;;;5003341;28;20018;-92
2023/01/29 06:18:42;;;;;;;43.53;9.10;;;5.30;99.90;;;;;;5021027;28;20455;-91
2023/01/29 06:21:10;;;;;;;13.75;7.10;;;5.20;99.90;;;;;;5021400;28;20476;-91
2023/01/29 06:23:36;;;;;;;17.15;7.63;;;5.20;99.90;;;;;;5003472;28;20032;-92
2023/01/29 06:26:05;;;;;;;16.30;8.10;;;5.20;99.90;;;;;;5021110;28;20038;-92
2023/01/29 06:28:31;;;;;;;17.15;7.43;;;5.20;99.90;;;;;;5003273;28;20014;-91
2023/01/29 06:30:59;;;;;;;17.25;9.40;;;5.20;99.90;;;;;;5020547;28;20030;-91
2023/01/29 06:33:25;;;;;;;20.50;9.27;;;5.20;99.90;;;;;;5003127;28;20096;-92
2023/01/29 06:35:58;;;;;;;16.10;7.88;;;5.20;99.90;;;;;;5003113;28;20041;-91
2023/01/29 06:38:25;;;;;;;21.23;10.30;;;5.10;99.90;;;;;;5003148;28;20566;-92
2023/01/29 06:40:51;;;;;;;15.77;9.23;;;5.10;99.90;;;;;;5021267;28;20068;-91
2023/01/29 06:43:17;;;;;;;17.98;9.23;;;5.10;99.90;;;;;;5006819;28;20037;-90
2023/01/29 06:45:54;;;;;;;19.25;9.35;;;5.10;99.90;;;;;;5027150;28;20021;-91
2023/01/29 06:48:21;;;;;;;20.50;11.05;;;5.10;99.90;;;;;;5003640;28;20018;-91
2023/01/29 06:50:48;;;;;;;13.05;8.45;;;5.10;99.90;;;;;;5002526;28;20024;-91
2023/01/29 06:53:14;;;;;;;15.85;8.77;;;5.10;99.90;;;;;;5019977;28;20018;-92
2023/01/29 06:55:40;;;;;;;14.93;9.45;;;5.00;99.90;;;;;;5020309;28;20030;-93
2023/01/29 06:58:07;;;;;;;22.80;9.52;;;5.00;99.90;;;;;;5003422;28;20090;-93
2023/01/29 07:00:33;;;;;;;19.85;8.40;;;5.00;99.90;;;;;;5020053;28;20014;-92
2023/01/29 07:02:59;;;;;;;13.00;8.07;;;5.00;99.90;;;;;;5020304;28;20073;-91
2023/01/29 07:05:25;;;;;;;18.50;9.40;;;5.00;99.90;;;;;;5019933;28;20018;-90
2023/01/29 07:07:50;;;;;;;17.15;9.18;;;5.00;99.90;;;;;;5019276;28;20033;-91
2023/01/29 07:10:16;;;;;;;15.55;7.88;;;4.90;99.90;;;;;;5019899;28;20026;-91
2023/01/29 07:12:42;;;;;;;13.50;7.75;;;4.90;99.90;;;;;;5002229;28;20297;-92
2023/01/29 07:15:08;;;;;;;14.57;6.93;;;4.90;99.90;;;;;;5003250;28;20036;-93
2023/01/29 07:17:33;;;;;;;11.10;6.82;;;4.90;99.90;;;;;;5003288;28;20053;-90
2023/01/29 07:19:59;;;;;;;10.70;5.50;;;4.90;99.90;;;;;;5020109;28;20060;-91
2023/01/29 07:22:25;;;;;;;10.90;6.30;;;4.90;99.90;;;;;;5019869;28;20040;-91
2023/01/29 07:24:50;;;;;;;11.20;5.28;;;4.80;99.90;;;;;;5002167;28;20018;-91
2023/01/29 07:27:16;;;;;;;10.35;5.88;;;4.80;99.90;;;;;;5020325;28;20038;-93
2023/01/29 07:29:41;;;;;;;11.48;5.15;;;4.90;99.90;;;;;;5002777;28;20029;-92
2023/01/29 07:32:07;;;;;;;9.98;5.60;;;4.80;99.90;;;;;;5002419;28;20026;-92
2023/01/29 07:34:33;;;;;;;8.80;4.78;;;4.80;99.90;;;;;;5019798;28;20034;-91
2023/01/29 07:36:58;;;;;;;12.20;4.22;;;4.80;99.90;;;;;;5001804;28;20025;-91
2023/01/29 07:39:24;;;;;;;9.60;4.10;;;4.80;99.90;;;;;;5001479;28;20045;-93
2023/01/29 07:41:50;;;;;;;7.90;3.30;;;4.80;99.90;;;;;;5018600;28;20029;-90
2023/01/29 07:44:15;;;;;;;5.65;2.97;;;4.80;99.90;;;;;;5001715;28;20018;-92
2023/01/29 07:46:41;;;;;;;11.32;3.45;;;4.80;99.90;;;;;;5002023;28;20040;-92
2023/01/29 07:49:07;;;;;;;10.63;3.95;;;4.80;99.90;;;;;;5001464;28;20483;-92
2023/01/29 07:51:32;;;;;;;4.30;2.60;;;4.80;99.90;;;;;;5001673;28;20123;-91
2023/01/29 07:53:58;;;;;;;3.28;2.00;;;4.70;99.90;;;;;;5002273;28;20017;-92
2023/01/29 07:56:24;;;;;;;5.00;2.35;;;4.80;99.90;;;;;;5000625;28;20033;-91
2023/01/29 07:58:49;;;;;;;8.25;3.17;;;4.70;99.90;;;;;;4999813;28;20049;-92
2023/01/29 08:01:15;;;;;;;8.38;2.50;;;4.80;99.90;;;;;;5017390;28;20022;-93
2023/01/29 08:03:41;;;;;;;3.10;1.73;;;4.80;99.90;;;;;;5001213;28;20030;-92
2023/01/29 08:06:07;;;;;;;7.25;3.13;;;4.70;99.90;;;;;;5021076;28;20030;-91
2023/01/29 08:08:33;;;;;;;21.58;7.90;;;4.70;99.90;;;;;;5004081;28;20034;-92
2023/01/29 08:11:02;;;;;;;6.50;2.42;;;4.70;99.90;;;;;;5018648;28;20083;-93
2023/01/29 08:13:28;;;;;;;7.55;2.92;;;4.70;99.90;;;;;;5002235;28;20026;-92
2023/01/29 08:15:53;;;;;;;5.97;2.53;;;4.70;99.90;;;;;;4999849;28;20113;-92
2023/01/29 08:18:19;;;;;;;21.35;7.45;;;4.70;99.90;;;;;;4999772;28;20121;-92
2023/01/29 08:20:44;;;;;;;8.30;3.72;;;4.70;99.90;;;;;;5001053;28;20032;-92
2023/01/29 08:23:14;;;;;;;5.72;2.38;;;4.70;99.90;;;;;;5005738;28;20791;-91
2023/01/29 08:25:39;;;;;;;4.60;3.08;;;4.70;99.90;;;;;;5008896;28;20025;-92
2023/01/29 08:28:05;;;;;;;9.88;3.90;;;4.70;99.90;;;;;;5001870;28;20041;-93
2023/01/29 08:30:33;;;;;;;7.28;3.67;;;4.80;99.90;;;;;;5002298;28;20022;-91
2023/01/29 08:33:02;;;;;;;5.40;2.22;;;4.70;99.90;;;;;;5001112;28;20026;-91
2023/01/29 08:35:27;;;;;;;6.10;2.78;;;4.80;99.90;;;;;;5001966;28;20026;-92
2023/01/29 08:37:58;;;;;;;9.85;3.10;;;4.80;99.90;;;;;;5001075;28;20033;-91
2023/01/29 08:40:28;;;;;;;;;;;4.80;99.90;;;;;;4999575;28;20053;-91
2023/01/29 08:43:02;;;;;;;6.30;2.63;;;4.80;99.90;;;;;;5001148;28;19912;-91
2023/01/29 08:45:27;;;;;;;8.95;4.18;;;4.80;99.90;;;;;;4999987;28;20029;-91
2023/01/29 08:47:53;;;;;;;7.93;2.58;;;4.80;99.90;;;;;;5001180;28;20476;-92
2023/01/29 08:50:19;;;;;;;4.32;2.60;;;4.80;99.90;;;;;;5001389;28;20025;-91
2023/01/29 08:52:45;;;;;;;8.13;2.80;;;4.90;99.90;;;;;;5002210;28;20131;-91
2023/01/29 08:55:11;;;;;;;6.68;2.38;;;4.90;99.90;;;;;;5002303;28;20037;-90
2023/01/29 08:57:37;;;;;;;4.75;2.38;;;4.90;99.90;;;;;;5014577;28;20077;-90
2023/01/29 09:00:05;;;;;;;5.70;2.58;;;4.90;99.90;;;;;;5002406;28;20032;-91
2023/01/29 09:02:31;;;;;;;9.18;2.38;;;4.90;99.90;;;;;;5002076;28;20029;-93
2023/01/29 09:04:56;;;;;;;6.30;2.58;;;4.90;99.90;;;;;;5002444;28;20034;-90
2023/01/29 09:07:22;;;;;;;3.25;2.00;;;5.00;99.90;;;;;;5002402;28;20521;-91
2023/01/29 09:09:48;;;;;;;3.97;2.53;;;5.00;99.90;;;;;;5002154;28;20537;-91
2023/01/29 09:12:13;;;;;;;4.25;2.00;;;5.00;99.90;;;;;;5002196;28;20368;-92
2023/01/29 09:14:39;;;;;;;7.50;2.83;;;5.10;99.90;;;;;;5003310;28;20022;-91
2023/01/29 09:17:04;;;;;;;5.43;2.13;;;5.10;99.90;;;;;;5005265;28;20029;-91
2023/01/29 09:19:30;;;;;;;1.27;1.17;;;5.10;99.90;;;;;;5005464;28;20022;-91
2023/01/29 09:21:56;;;;;;;2.67;1.63;;;5.20;99.90;;;;;;5005913;28;20483;-91
2023/01/29 09:24:21;;;;;;;6.93;1.88;;;5.20;99.90;;;;;;5005164;28;20032;-92
2023/01/29 09:26:48;;;;;;;4.75;2.03;;;5.30;99.90;;;;;;5005282;28;20041;-90
2023/01/29 09:29:14;;;;;;;5.53;2.05;;;5.40;99.90;;;;;;5005915;28;20029;-93
2023/01/29 09:31:39;;;;;;;5.80;1.95;;;5.40;99.90;;;;;;5005414;28;20368;-90
2023/01/29 09:34:08;;;;;;;8.32;2.90;;;5.50;99.90;;;;;;5000260;28;20028;-91
2023/01/29 09:36:33;;;;;;;8.27;2.45;;;5.50;99.90;;;;;;5002026;28;20030;-90
2023/01/29 09:38:59;;;;;;;7.80;3.10;;;5.60;99.90;;;;;;5005158;28;20026;-92
2023/01/29 09:41:51;;;;;;;6.28;2.58;;;5.50;99.90;;;;;;5006236;28;20049;-91
2023/01/29 09:44:56;;;;;;;5.68;2.38;;;5.60;99.90;;;;;;4999037;28;20049;-91
2023/01/29 09:47:25;;;;;;;9.98;3.80;;;5.60;99.90;;;;;;4997699;28;20045;-91
2023/01/29 09:50:00;;;;;;;9.32;2.75;;;5.60;99.90;;;;;;5001964;28;20018;-92
2023/01/29 09:52:31;;;;;;;14.63;4.00;;;5.60;99.90;;;;;;5000013;28;20458;-92
2023/01/29 09:55:23;;;;;;;8.35;2.35;;;5.60;99.90;;;;;;4999266;28;20034;-92
2023/01/29 09:58:10;;;;;;;9.02;2.78;;;5.70;99.90;;;;;;4997906;28;20131;-93
2023/01/29 10:00:45;;;;;;;7.00;3.25;;;5.70;99.90;;;;;;4999009;28;20033;-91
2023/01/29 10:03:34;;;;;;;5.22;2.05;;;5.70;99.90;;;;;;5002566;28;20037;-91
2023/01/29 10:06:24;;;;;;;7.50;2.30;;;5.70;99.90;;;;;;5016088;28;20022;-91
2023/01/29 10:09:02;;;;;;;5.17;2.20;;;5.70;99.90;;;;;;4999658;28;20026;-90
2023/01/29 10:11:58;;;;;;;5.82;2.00;;;5.80;99.90;;;;;;4999746;28;20102;-91
2023/01/29 10:14:43;;;;;;;2.80;1.70;;;5.80;99.90;;;;;;4998344;28;20084;-91
2023/01/29 10:17:24;;;;;;;7.72;2.63;;;5.90;99.90;;;;;;5009046;28;20117;-91
2023/01/29 10:20:13;;;;;;;3.40;1.70;;;5.90;99.90;;;;;;4995679;28;20025;-92
2023/01/29 10:23:09;;;;;;;5.27;1.57;;;5.90;99.90;;;;;;4996343;28;20080;-91
2023/01/29 10:25:39;;;;;;;5.38;2.30;;;5.90;99.90;;;;;;4995279;28;20323;-91
2023/01/29 10:28:19;;;;;;;10.68;2.38;;;5.90;99.90;;;;;;4988114;28;20034;-92
2023/01/29 10:30:50;;;;;;;6.95;2.08;;;5.90;99.90;;;;;;4990407;28;20033;-92
2023/01/29 10:33:25;;;;;;;4.20;1.60;;;5.90;99.90;;;;;;4995664;28;20029;-92
2023/01/29 10:35:59;;;;;;;9.13;1.95;;;5.90;99.90;;;;;;4986333;28;20018;-92
2023/01/29 10:38:37;;;;;;;3.08;1.50;;;6.00;99.90;;;;;;4991488;28;20033;-91
2023/01/29 10:41:09;;;;;;;4.80;1.75;;;6.00;99.90;;;;;;5001404;28;20041;-90
2023/01/29 10:43:40;;;;;;;2.80;1.23;;;6.00;99.90;;;;;;4990298;28;20026;-92
2023/01/29 10:46:24;;;;;;;5.00;1.70;;;6.00;99.90;;;;;;4991986;28;20041;-92
2023/01/29 10:49:16;;;;;;;2.65;1.40;;;6.00;99.90;;;;;;4987511;28;20036;-93
2023/01/29 10:51:51;;;;;;;5.45;2.00;;;6.10;99.90;;;;;;4997147;28;20028;-91
2023/01/29 10:54:56;;;;;;;4.50;1.50;;;6.10;99.90;;;;;;4991806;28;20042;-92
2023/01/29 10:57:50;;;;;;;5.38;2.10;;;6.10;99.90;;;;;;5006025;28;20029;-93
2023/01/29 11:00:49;;;;;;;5.55;2.33;;;6.10;99.90;;;;;;4996843;28;20026;-92
2023/01/29 11:03:26;;;;;;;4.22;2.20;;;6.00;99.90;;;;;;4968794;28;20039;-93
2023/01/29 11:05:55;;;;;;;5.60;1.67;;;6.00;99.90;;;;;;5001548;28;20022;-93
2023/01/29 11:08:27;;;;;;;3.22;1.48;;;6.00;99.90;;;;;;5000113;28;20026;-94
2023/01/29 11:11:12;;;;;;;5.90;2.28;;;5.80;99.90;;;;;;4998172;28;20368;-92
2023/01/29 11:13:49;;;;;;;7.55;1.95;;;5.80;99.90;;;;;;4991697;28;20029;-92
2023/01/29 11:16:15;;;;;;;4.15;1.80;;;5.80;99.90;;;;;;5000417;28;20033;-93
2023/01/29 11:18:57;;;;;;;7.95;1.88;;;5.80;99.90;;;;;;4936501;28;1348533;-93
2023/01/29 11:21:24;;;;;;;4.28;2.55;;;5.80;99.90;;;;;;4986708;28;20053;-92
2023/01/29 11:24:05;;;;;;;4.03;2.70;;;5.80;99.90;;;;;;4982961;28;20082;-92
2023/01/29 11:26:33;;;;;;;;;;;5.80;99.90;;;;;;5003044;28;20097;-93
2023/01/29 11:28:58;;;;;;;14.27;3.42;;;5.80;99.90;;;;;;4982825;28;20363;-91
2023/01/29 11:31:35;;;;;;;4.45;3.03;;;5.80;99.90;;;;;;5006137;28;20026;-91
2023/01/29 11:34:05;;;;;;;7.05;3.50;;;5.80;99.90;;;;;;4988058;28;20427;-92
2023/01/29 11:36:37;;;;;;;5.03;3.25;;;5.70;99.90;;;;;;4994138;28;20038;-91
2023/01/29 11:39:22;;;;;;;3.92;3.08;;;5.70;99.90;;;;;;4991686;28;20034;-92
2023/01/29 11:41:57;;;;;;;4.28;3.08;;;5.80;99.90;;;;;;4995528;28;20073;-93
2023/01/29 11:44:35;;;;;;;8.60;3.38;;;5.80;99.90;;;;;;4983858;28;20021;-92
2023/01/29 11:47:39;;;;;;;6.57;3.50;;;5.80;99.90;;;;;;4990027;28;20042;-93
2023/01/29 11:50:05;;;;;;;4.38;2.13;;;5.80;99.90;;;;;;4918076;29;20027;-94
2023/01/29 11:52:37;;;;;;;5.22;2.72;;;5.80;99.90;;;;;;4915693;29;20103;-93
2023/01/29 11:55:17;;;;;;;12.65;3.05;;;5.80;99.90;;;;;;4915360;29;20104;-93
2023/01/29 11:57:47;;;;;;;4.30;2.65;;;5.80;99.90;;;;;;4921724;29;20024;-92
2023/01/29 12:00:26;;;;;;;7.93;2.78;;;5.90;99.90;;;;;;4915774;29;20023;-91
2023/01/29 12:03:16;;;;;;;7.75;2.10;;;5.80;99.90;;;;;;4915679;29;20062;-94
2023/01/29 12:05:55;;;;;;;12.75;4.32;;;5.90;99.90;;;;;;4934070;29;20024;-93
2023/01/29 12:08:22;;;;;;;5.90;1.80;;;5.90;99.90;;;;;;4914342;29;20075;-91
2023/01/29 12:10:51;;;;;;;3.53;1.38;;;5.90;99.90;;;;;;4920116;29;20039;-93
2023/01/29 12:13:27;;;;;;;5.68;2.08;;;5.90;99.90;;;;;;4916264;29;20031;-91
2023/01/29 12:16:19;;;;;;;4.88;1.83;;;5.90;99.90;;;;;;4916636;29;20024;-92
2023/01/29 12:19:06;;;;;;;2.95;1.75;;;5.90;99.90;;;;;;4918155;29;20050;-92
2023/01/29 12:22:00;;;;;;;4.85;2.10;;;5.90;99.90;;;;;;4968871;28;20030;-92
2023/01/29 12:24:34;;;;;;;2.58;1.95;;;5.90;99.90;;;;;;4982185;28;20547;-93
2023/01/29 12:27:06;;;;;;;8.05;2.25;;;5.90;99.90;;;;;;4983176;28;20125;-92
2023/01/29 12:29:54;;;;;;;5.05;2.10;;;5.90;99.90;;;;;;4986113;28;20077;-91
2023/01/29 12:32:55;;;;;;;8.00;2.70;;;5.80;99.90;;;;;;4989707;28;20024;-91
2023/01/29 12:35:25;;;;;;;;;;;5.90;99.90;;;;;;4990052;28;20085;-92
2023/01/29 12:38:01;;;;;;;8.10;2.08;;;5.90;99.90;;;;;;4994175;28;19906;-91
2023/01/29 12:40:55;;;;;;;3.97;1.98;;;5.90;99.90;;;;;;4995132;28;20137;-93
2023/01/29 12:43:28;;;;;;;2.58;1.20;;;5.90;99.90;;;;;;4993886;28;20467;-91
2023/01/29 12:45:57;;;;;;;5.47;1.70;;;5.90;99.90;;;;;;4993228;28;20030;-92
2023/01/29 12:48:30;;;;;;;8.32;1.85;;;6.00;99.90;;;;;;4994568;28;20037;-90
2023/01/29 12:51:25;;;;;;;5.53;1.48;;;6.00;99.90;;;;;;4991763;28;20018;-89
2023/01/29 12:53:58;;;;;;;9.65;1.73;;;6.00;99.90;;;;;;4995246;28;20040;-93
2023/01/29 12:56:36;;;;;;;3.00;1.48;;;6.00;99.90;;;;;;5000561;28;20038;-92
2023/01/29 12:59:11;;;;;;;6.18;1.58;;;6.00;99.90;;;;;;4999139;28;20046;-91
2023/01/29 13:01:51;;;;;;;4.38;1.90;;;6.10;99.90;;;;;;5000262;28;20022;-93
2023/01/29 13:04:40;;;;;;;4.93;1.55;;;6.10;99.90;;;;;;4996762;28;20026;-92
2023/01/29 13:07:30;;;;;;;1.42;1.05;;;6.20;99.90;;;;;;4999380;28;20060;-92
2023/01/29 13:10:04;;;;;;;5.03;1.63;;;6.40;99.90;;;;;;4999803;28;20065;-89
2023/01/29 13:12:32;;;;;;;6.10;1.90;;;6.40;99.90;;;;;;4999491;28;20038;-91
2023/01/29 13:15:20;;;;;;;4.00;2.05;;;6.50;99.90;;;;;;4999408;28;20022;-91
2023/01/29 13:17:52;;;;;;;4.35;2.13;;;6.50;99.90;;;;;;4997580;28;20065;-92
2023/01/29 13:20:28;;;;;;;6.28;1.70;;;6.50;99.90;;;;;;5004070;28;20554;-91
2023/01/29 13:23:14;;;;;;;4.38;1.80;;;6.40;99.90;;;;;;5000257;28;20709;-91
2023/01/29 13:25:39;;;;;;;6.53;2.60;;;6.40;99.90;;;;;;4989564;28;20455;-93
2023/01/29 13:28:18;;;;;;;3.17;1.48;;;6.40;99.90;;;;;;4999592;28;20073;-93
2023/01/29 13:30:44;;;;;;;5.95;1.90;;;6.40;99.90;;;;;;4999474;28;20036;-91
2023/01/29 13:33:21;;;;;;;8.57;3.35;;;6.40;99.90;;;;;;4999093;28;20117;-94
2023/01/29 13:35:56;;;;;;;2.92;1.90;;;6.50;99.90;;;;;;4997036;28;20022;-93
2023/01/29 13:38:26;;;;;;;4.13;2.80;;;6.50;99.90;;;;;;5000096;28;20034;-91
2023/01/29 13:40:59;;;;;;;6.05;3.45;;;6.50;99.90;;;;;;5006176;28;20018;-91
2023/01/29 13:43:36;;;;;;;8.00;4.60;;;6.50;99.90;;;;;;5002886;28;20038;-92